sensor_id;sensor_type;location;lat;lon;timestamp;P1;durP1;ratioP1;P2;durP2;ratioP2
6127;SDS011;7073;42.672;23.256;2022-09-01T00:00:04;19.00;;;13.10;;
6127;SDS011;7073;42.672;23.256;2022-09-01T00:02:36;17.57;;;13.47;;
6127;SDS011;7073;42.672;23.256;2022-09-01T00:05:03;18.17;;;12.73;;
6127;SDS011;7073;42.672;23.256;2022-09-01T00:07:31;18.90;;;12.60;;
6127;SDS011;7073;42.672;23.256;2022-09-01T00:10:00;18.80;;;13.37;;
6127;SDS011;7073;42.672;23.256;2022-09-01T00:12:29;17.93;;;13.30;;
6127;SDS011;7073;42.672;23.256;2022-09-01T00:14:57;14.77;;;12.73;;
6127;SDS011;7073;42.672;23.256;2022-09-01T00:17:24;19.60;;;13.27;;
6127;SDS011;7073;42.672;23.256;2022-09-01T00:19:53;14.60;;;12.13;;
6127;SDS011;7073;42.672;23.256;2022-09-01T00:22:21;17.33;;;12.80;;
6127;SDS011;7073;42.672;23.256;2022-09-01T00:24:47;17.20;;;12.90;;
6127;SDS011;7073;42.672;23.256;2022-09-01T00:27:14;16.47;;;13.50;;
6127;SDS011;7073;42.672;23.256;2022-09-01T00:29:41;17.87;;;13.67;;
6127;SDS011;7073;42.672;23.256;2022-09-01T00:32:08;19.67;;;14.30;;
6127;SDS011;7073;42.672;23.256;2022-09-01T00:34:35;18.20;;;13.73;;
6127;SDS011;7073;42.672;23.256;2022-09-01T00:37:03;17.50;;;12.83;;
6127;SDS011;7073;42.672;23.256;2022-09-01T00:39:30;18.17;;;13.97;;
6127;SDS011;7073;42.672;23.256;2022-09-01T00:41:57;16.63;;;13.20;;
6127;SDS011;7073;42.672;23.256;2022-09-01T00:44:24;21.23;;;14.30;;
6127;SDS011;7073;42.672;23.256;2022-09-01T00:46:52;14.90;;;13.27;;
6127;SDS011;7073;42.672;23.256;2022-09-01T00:49:21;20.90;;;14.73;;
6127;SDS011;7073;42.672;23.256;2022-09-01T00:51:54;15.93;;;12.53;;
6127;SDS011;7073;42.672;23.256;2022-09-01T00:54:26;19.70;;;13.80;;
6127;SDS011;7073;42.672;23.256;2022-09-01T00:56:55;18.10;;;13.77;;
6127;SDS011;7073;42.672;23.256;2022-09-01T00:59:24;16.07;;;13.13;;
6127;SDS011;7073;42.672;23.256;2022-09-01T01:01:52;17.70;;;13.20;;
6127;SDS011;7073;42.672;23.256;2022-09-01T01:04:18;14.87;;;12.10;;
6127;SDS011;7073;42.672;23.256;2022-09-01T01:06:46;16.60;;;13.23;;
6127;SDS011;7073;42.672;23.256;2022-09-01T01:09:22;18.63;;;15.03;;
6127;SDS011;7073;42.672;23.256;2022-09-01T01:11:52;19.40;;;13.43;;
6127;SDS011;7073;42.672;23.256;2022-09-01T01:14:23;18.90;;;13.10;;
6127;SDS011;7073;42.672;23.256;2022-09-01T01:16:52;17.93;;;14.03;;
6127;SDS011;7073;42.672;23.256;2022-09-01T01:19:22;20.80;;;14.27;;
6127;SDS011;7073;42.672;23.256;2022-09-01T01:22:13;18.83;;;13.60;;
6127;SDS011;7073;42.672;23.256;2022-09-01T01:25:08;18.17;;;14.00;;
6127;SDS011;7073;42.672;23.256;2022-09-01T01:27:37;18.80;;;13.43;;
6127;SDS011;7073;42.672;23.256;2022-09-01T01:30:05;18.07;;;14.07;;
6127;SDS011;7073;42.672;23.256;2022-09-01T01:32:35;18.60;;;13.63;;
6127;SDS011;7073;42.672;23.256;2022-09-01T01:35:02;17.53;;;13.73;;
6127;SDS011;7073;42.672;23.256;2022-09-01T01:37:32;19.23;;;14.00;;
6127;SDS011;7073;42.672;23.256;2022-09-01T01:40:00;20.43;;;13.67;;
6127;SDS011;7073;42.672;23.256;2022-09-01T01:42:29;19.13;;;14.57;;
6127;SDS011;7073;42.672;23.256;2022-09-01T01:44:57;20.50;;;14.37;;
6127;SDS011;7073;42.672;23.256;2022-09-01T01:47:24;18.53;;;13.50;;
6127;SDS011;7073;42.672;23.256;2022-09-01T01:49:51;19.97;;;14.07;;
6127;SDS011;7073;42.672;23.256;2022-09-01T01:52:21;20.80;;;13.97;;
6127;SDS011;7073;42.672;23.256;2022-09-01T01:54:48;20.20;;;13.57;;
6127;SDS011;7073;42.672;23.256;2022-09-01T01:57:15;17.50;;;13.70;;
6127;SDS011;7073;42.672;23.256;2022-09-01T01:59:44;19.40;;;13.47;;
6127;SDS011;7073;42.672;23.256;2022-09-01T02:02:11;21.00;;;13.70;;
6127;SDS011;7073;42.672;23.256;2022-09-01T02:04:38;21.13;;;13.50;;
6127;SDS011;7073;42.672;23.256;2022-09-01T02:07:07;19.50;;;13.00;;
6127;SDS011;7073;42.672;23.256;2022-09-01T02:09:36;22.10;;;15.20;;
6127;SDS011;7073;42.672;23.256;2022-09-01T02:12:05;22.07;;;14.67;;
6127;SDS011;7073;42.672;23.256;2022-09-01T02:14:33;19.10;;;14.43;;
6127;SDS011;7073;42.672;23.256;2022-09-01T02:17:02;19.53;;;14.57;;
6127;SDS011;7073;42.672;23.256;2022-09-01T02:19:30;18.60;;;14.33;;
6127;SDS011;7073;42.672;23.256;2022-09-01T02:21:57;19.90;;;14.43;;
6127;SDS011;7073;42.672;23.256;2022-09-01T02:24:24;22.50;;;15.13;;
6127;SDS011;7073;42.672;23.256;2022-09-01T02:26:56;23.23;;;15.00;;
6127;SDS011;7073;42.672;23.256;2022-09-01T02:29:24;23.60;;;14.83;;
6127;SDS011;7073;42.672;23.256;2022-09-01T02:31:53;22.23;;;14.30;;
6127;SDS011;7073;42.672;23.256;2022-09-01T02:34:23;20.57;;;15.20;;
6127;SDS011;7073;42.672;23.256;2022-09-01T02:36:54;21.57;;;14.70;;
6127;SDS011;7073;42.672;23.256;2022-09-01T02:39:22;29.33;;;16.30;;
6127;SDS011;7073;42.672;23.256;2022-09-01T02:41:52;24.13;;;16.93;;
6127;SDS011;7073;42.672;23.256;2022-09-01T02:44:19;21.03;;;15.83;;
6127;SDS011;7073;42.672;23.256;2022-09-01T02:46:47;18.70;;;14.77;;
6127;SDS011;7073;42.672;23.256;2022-09-01T02:49:17;22.93;;;15.80;;
6127;SDS011;7073;42.672;23.256;2022-09-01T02:51:54;23.17;;;14.47;;
6127;SDS011;7073;42.672;23.256;2022-09-01T02:54:23;25.43;;;14.87;;
6127;SDS011;7073;42.672;23.256;2022-09-01T02:56:52;27.77;;;15.50;;
6127;SDS011;7073;42.672;23.256;2022-09-01T02:59:19;21.40;;;13.87;;
6127;SDS011;7073;42.672;23.256;2022-09-01T03:01:48;19.90;;;13.37;;
6127;SDS011;7073;42.672;23.256;2022-09-01T03:04:16;15.93;;;12.13;;
6127;SDS011;7073;42.672;23.256;2022-09-01T03:06:44;19.57;;;12.90;;
6127;SDS011;7073;42.672;23.256;2022-09-01T03:09:14;22.60;;;13.23;;
6127;SDS011;7073;42.672;23.256;2022-09-01T03:11:43;16.07;;;12.20;;
6127;SDS011;7073;42.672;23.256;2022-09-01T03:14:11;19.10;;;12.30;;
6127;SDS011;7073;42.672;23.256;2022-09-01T03:16:39;19.90;;;15.17;;
6127;SDS011;7073;42.672;23.256;2022-09-01T03:19:06;23.40;;;14.20;;
6127;SDS011;7073;42.672;23.256;2022-09-01T03:21:36;18.07;;;14.07;;
6127;SDS011;7073;42.672;23.256;2022-09-01T03:24:05;23.13;;;15.87;;
6127;SDS011;7073;42.672;23.256;2022-09-01T03:26:34;22.33;;;15.60;;
6127;SDS011;7073;42.672;23.256;2022-09-01T03:29:02;26.20;;;15.67;;
6127;SDS011;7073;42.672;23.256;2022-09-01T03:31:30;32.77;;;16.47;;
6127;SDS011;7073;42.672;23.256;2022-09-01T03:33:57;21.97;;;14.83;;
6127;SDS011;7073;42.672;23.256;2022-09-01T03:36:25;20.97;;;15.27;;
6127;SDS011;7073;42.672;23.256;2022-09-01T03:38:53;22.13;;;16.80;;
6127;SDS011;7073;42.672;23.256;2022-09-01T03:41:21;25.73;;;16.03;;
6127;SDS011;7073;42.672;23.256;2022-09-01T03:43:51;25.33;;;15.37;;
6127;SDS011;7073;42.672;23.256;2022-09-01T03:46:22;25.30;;;16.20;;
6127;SDS011;7073;42.672;23.256;2022-09-01T03:48:51;21.60;;;15.23;;
6127;SDS011;7073;42.672;23.256;2022-09-01T03:51:19;22.37;;;15.27;;
6127;SDS011;7073;42.672;23.256;2022-09-01T03:53:48;25.43;;;17.23;;
6127;SDS011;7073;42.672;23.256;2022-09-01T03:56:18;18.17;;;14.30;;
6127;SDS011;7073;42.672;23.256;2022-09-01T03:58:45;22.00;;;15.33;;
6127;SDS011;7073;42.672;23.256;2022-09-01T04:01:14;24.90;;;15.87;;
6127;SDS011;7073;42.672;23.256;2022-09-01T04:03:41;24.40;;;15.70;;
6127;SDS011;7073;42.672;23.256;2022-09-01T04:06:13;22.30;;;16.10;;
6127;SDS011;7073;42.672;23.256;2022-09-01T04:08:42;23.50;;;15.57;;
6127;SDS011;7073;42.672;23.256;2022-09-01T04:11:11;24.60;;;16.40;;
6127;SDS011;7073;42.672;23.256;2022-09-01T04:13:40;32.43;;;16.13;;
6127;SDS011;7073;42.672;23.256;2022-09-01T04:16:16;22.50;;;15.60;;
6127;SDS011;7073;42.672;23.256;2022-09-01T04:18:58;27.10;;;18.30;;
6127;SDS011;7073;42.672;23.256;2022-09-01T04:21:25;27.40;;;17.20;;
6127;SDS011;7073;42.672;23.256;2022-09-01T04:23:53;25.10;;;16.60;;
6127;SDS011;7073;42.672;23.256;2022-09-01T04:26:29;28.00;;;17.20;;
6127;SDS011;7073;42.672;23.256;2022-09-01T04:28:57;27.50;;;17.60;;
6127;SDS011;7073;42.672;23.256;2022-09-01T04:31:26;26.67;;;17.83;;
6127;SDS011;7073;42.672;23.256;2022-09-01T04:33:55;27.27;;;18.63;;
6127;SDS011;7073;42.672;23.256;2022-09-01T04:36:23;26.67;;;18.23;;
6127;SDS011;7073;42.672;23.256;2022-09-01T04:38:52;31.83;;;20.33;;
6127;SDS011;7073;42.672;23.256;2022-09-01T04:41:22;31.60;;;20.37;;
6127;SDS011;7073;42.672;23.256;2022-09-01T04:43:51;28.30;;;19.20;;
6127;SDS011;7073;42.672;23.256;2022-09-01T04:46:20;29.10;;;19.73;;
6127;SDS011;7073;42.672;23.256;2022-09-01T04:48:50;30.10;;;18.33;;
6127;SDS011;7073;42.672;23.256;2022-09-01T04:51:17;25.63;;;17.77;;
6127;SDS011;7073;42.672;23.256;2022-09-01T04:53:44;24.77;;;18.40;;
6127;SDS011;7073;42.672;23.256;2022-09-01T04:56:14;33.83;;;18.87;;
6127;SDS011;7073;42.672;23.256;2022-09-01T04:58:43;29.70;;;18.97;;
6127;SDS011;7073;42.672;23.256;2022-09-01T05:01:14;30.33;;;20.10;;
6127;SDS011;7073;42.672;23.256;2022-09-01T05:03:42;30.70;;;19.13;;
6127;SDS011;7073;42.672;23.256;2022-09-01T05:06:13;27.00;;;17.30;;
6127;SDS011;7073;42.672;23.256;2022-09-01T05:08:41;29.57;;;19.00;;
6127;SDS011;7073;42.672;23.256;2022-09-01T05:11:10;32.03;;;21.13;;
6127;SDS011;7073;42.672;23.256;2022-09-01T05:13:41;30.40;;;20.13;;
6127;SDS011;7073;42.672;23.256;2022-09-01T05:16:10;28.20;;;18.97;;
6127;SDS011;7073;42.672;23.256;2022-09-01T05:18:40;34.87;;;19.90;;
6127;SDS011;7073;42.672;23.256;2022-09-01T05:21:10;34.40;;;21.03;;
6127;SDS011;7073;42.672;23.256;2022-09-01T05:23:40;33.30;;;20.50;;
6127;SDS011;7073;42.672;23.256;2022-09-01T05:26:11;32.17;;;19.37;;
6127;SDS011;7073;42.672;23.256;2022-09-01T05:28:42;26.53;;;18.40;;
6127;SDS011;7073;42.672;23.256;2022-09-01T05:31:09;27.73;;;19.10;;
6127;SDS011;7073;42.672;23.256;2022-09-01T05:33:37;32.90;;;18.63;;
6127;SDS011;7073;42.672;23.256;2022-09-01T05:36:10;31.50;;;21.00;;
6127;SDS011;7073;42.672;23.256;2022-09-01T05:38:40;27.70;;;20.83;;
6127;SDS011;7073;42.672;23.256;2022-09-01T05:41:08;35.27;;;22.57;;
6127;SDS011;7073;42.672;23.256;2022-09-01T05:43:39;35.17;;;21.67;;
6127;SDS011;7073;42.672;23.256;2022-09-01T05:46:15;34.30;;;21.73;;
6127;SDS011;7073;42.672;23.256;2022-09-01T05:48:43;33.43;;;21.87;;
6127;SDS011;7073;42.672;23.256;2022-09-01T05:51:13;37.50;;;21.17;;
6127;SDS011;7073;42.672;23.256;2022-09-01T05:53:45;31.50;;;21.57;;
6127;SDS011;7073;42.672;23.256;2022-09-01T05:56:15;32.50;;;19.80;;
6127;SDS011;7073;42.672;23.256;2022-09-01T05:58:43;29.03;;;20.07;;
6127;SDS011;7073;42.672;23.256;2022-09-01T06:01:14;26.83;;;20.37;;
6127;SDS011;7073;42.672;23.256;2022-09-01T06:03:46;28.03;;;20.37;;
6127;SDS011;7073;42.672;23.256;2022-09-01T06:06:14;35.17;;;22.47;;
6127;SDS011;7073;42.672;23.256;2022-09-01T06:08:42;33.70;;;23.00;;
6127;SDS011;7073;42.672;23.256;2022-09-01T06:11:15;44.10;;;30.70;;
6127;SDS011;7073;42.672;23.256;2022-09-01T06:13:42;34.43;;;23.37;;
6127;SDS011;7073;42.672;23.256;2022-09-01T06:16:11;35.73;;;23.53;;
6127;SDS011;7073;42.672;23.256;2022-09-01T06:18:39;36.97;;;25.57;;
6127;SDS011;7073;42.672;23.256;2022-09-01T06:21:08;43.63;;;28.00;;
6127;SDS011;7073;42.672;23.256;2022-09-01T06:23:39;35.27;;;25.07;;
6127;SDS011;7073;42.672;23.256;2022-09-01T06:26:06;37.33;;;24.93;;
6127;SDS011;7073;42.672;23.256;2022-09-01T06:28:35;41.73;;;25.70;;
6127;SDS011;7073;42.672;23.256;2022-09-01T06:31:05;37.00;;;23.90;;
6127;SDS011;7073;42.672;23.256;2022-09-01T06:33:33;35.60;;;24.63;;
6127;SDS011;7073;42.672;23.256;2022-09-01T06:36:01;37.37;;;24.50;;
6127;SDS011;7073;42.672;23.256;2022-09-01T06:38:29;34.93;;;24.80;;
6127;SDS011;7073;42.672;23.256;2022-09-01T06:41:00;40.43;;;26.77;;
6127;SDS011;7073;42.672;23.256;2022-09-01T06:43:28;32.30;;;23.87;;
6127;SDS011;7073;42.672;23.256;2022-09-01T06:45:59;41.70;;;23.50;;
6127;SDS011;7073;42.672;23.256;2022-09-01T06:48:27;32.13;;;20.23;;
6127;SDS011;7073;42.672;23.256;2022-09-01T06:50:57;38.33;;;25.33;;
6127;SDS011;7073;42.672;23.256;2022-09-01T06:53:27;29.07;;;21.93;;
6127;SDS011;7073;42.672;23.256;2022-09-01T06:55:56;34.67;;;25.20;;
6127;SDS011;7073;42.672;23.256;2022-09-01T06:58:23;38.90;;;26.10;;
6127;SDS011;7073;42.672;23.256;2022-09-01T07:00:50;41.40;;;28.20;;
6127;SDS011;7073;42.672;23.256;2022-09-01T07:03:19;38.10;;;26.40;;
6127;SDS011;7073;42.672;23.256;2022-09-01T07:05:49;35.03;;;24.17;;
6127;SDS011;7073;42.672;23.256;2022-09-01T07:08:17;33.07;;;25.67;;
6127;SDS011;7073;42.672;23.256;2022-09-01T07:10:46;37.73;;;25.97;;
6127;SDS011;7073;42.672;23.256;2022-09-01T07:13:16;34.37;;;23.70;;
6127;SDS011;7073;42.672;23.256;2022-09-01T07:15:47;42.23;;;26.73;;
6127;SDS011;7073;42.672;23.256;2022-09-01T07:18:14;43.43;;;27.30;;
6127;SDS011;7073;42.672;23.256;2022-09-01T07:20:44;44.80;;;27.60;;
6127;SDS011;7073;42.672;23.256;2022-09-01T07:23:13;36.40;;;25.40;;
6127;SDS011;7073;42.672;23.256;2022-09-01T07:25:41;35.63;;;25.30;;
6127;SDS011;7073;42.672;23.256;2022-09-01T07:28:10;38.33;;;26.47;;
6127;SDS011;7073;42.672;23.256;2022-09-01T07:30:39;38.23;;;27.33;;
6127;SDS011;7073;42.672;23.256;2022-09-01T07:33:09;37.10;;;27.50;;
6127;SDS011;7073;42.672;23.256;2022-09-01T07:35:38;42.27;;;27.60;;
6127;SDS011;7073;42.672;23.256;2022-09-01T07:38:08;35.53;;;25.70;;
6127;SDS011;7073;42.672;23.256;2022-09-01T07:40:35;37.90;;;24.40;;
6127;SDS011;7073;42.672;23.256;2022-09-01T07:43:04;37.73;;;26.00;;
6127;SDS011;7073;42.672;23.256;2022-09-01T07:45:34;39.80;;;25.97;;
6127;SDS011;7073;42.672;23.256;2022-09-01T07:48:03;34.97;;;24.80;;
6127;SDS011;7073;42.672;23.256;2022-09-01T07:50:32;38.20;;;25.60;;
6127;SDS011;7073;42.672;23.256;2022-09-01T07:53:01;42.67;;;28.47;;
6127;SDS011;7073;42.672;23.256;2022-09-01T07:55:30;33.67;;;25.57;;
6127;SDS011;7073;42.672;23.256;2022-09-01T07:57:57;32.83;;;22.40;;
6127;SDS011;7073;42.672;23.256;2022-09-01T08:00:24;40.00;;;27.90;;
6127;SDS011;7073;42.672;23.256;2022-09-01T08:02:52;37.73;;;28.00;;
6127;SDS011;7073;42.672;23.256;2022-09-01T08:05:20;38.73;;;28.10;;
6127;SDS011;7073;42.672;23.256;2022-09-01T08:07:51;39.43;;;27.00;;
6127;SDS011;7073;42.672;23.256;2022-09-01T08:10:18;37.67;;;25.83;;
6127;SDS011;7073;42.672;23.256;2022-09-01T08:12:47;62.23;;;28.07;;
6127;SDS011;7073;42.672;23.256;2022-09-01T08:15:14;34.90;;;25.17;;
6127;SDS011;7073;42.672;23.256;2022-09-01T08:17:42;36.33;;;25.83;;
6127;SDS011;7073;42.672;23.256;2022-09-01T08:20:10;38.00;;;26.10;;
6127;SDS011;7073;42.672;23.256;2022-09-01T08:22:37;36.73;;;25.97;;
6127;SDS011;7073;42.672;23.256;2022-09-01T08:25:04;37.03;;;26.57;;
6127;SDS011;7073;42.672;23.256;2022-09-01T08:27:32;33.20;;;24.10;;
6127;SDS011;7073;42.672;23.256;2022-09-01T08:30:06;36.47;;;23.57;;
6127;SDS011;7073;42.672;23.256;2022-09-01T08:32:35;35.00;;;24.87;;
6127;SDS011;7073;42.672;23.256;2022-09-01T08:35:06;31.20;;;23.60;;
6127;SDS011;7073;42.672;23.256;2022-09-01T08:37:35;33.00;;;24.43;;
6127;SDS011;7073;42.672;23.256;2022-09-01T08:40:02;31.50;;;24.10;;
6127;SDS011;7073;42.672;23.256;2022-09-01T08:42:36;35.33;;;24.67;;
6127;SDS011;7073;42.672;23.256;2022-09-01T08:45:12;40.63;;;24.60;;
6127;SDS011;7073;42.672;23.256;2022-09-01T08:47:46;31.87;;;21.80;;
6127;SDS011;7073;42.672;23.256;2022-09-01T08:50:14;28.97;;;21.30;;
6127;SDS011;7073;42.672;23.256;2022-09-01T08:52:43;32.80;;;25.53;;
6127;SDS011;7073;42.672;23.256;2022-09-01T08:55:14;29.67;;;23.77;;
6127;SDS011;7073;42.672;23.256;2022-09-01T08:57:46;28.53;;;21.50;;
6127;SDS011;7073;42.672;23.256;2022-09-01T09:00:17;31.33;;;21.90;;
6127;SDS011;7073;42.672;23.256;2022-09-01T09:02:52;28.80;;;22.10;;
6127;SDS011;7073;42.672;23.256;2022-09-01T09:05:32;26.73;;;18.00;;
6127;SDS011;7073;42.672;23.256;2022-09-01T09:08:13;20.80;;;18.00;;
6127;SDS011;7073;42.672;23.256;2022-09-01T09:10:50;25.03;;;22.13;;
6127;SDS011;7073;42.672;23.256;2022-09-01T09:13:24;31.23;;;20.27;;
6127;SDS011;7073;42.672;23.256;2022-09-01T09:16:02;22.03;;;18.17;;
6127;SDS011;7073;42.672;23.256;2022-09-01T09:18:36;28.37;;;19.03;;
6127;SDS011;7073;42.672;23.256;2022-09-01T09:21:11;26.47;;;18.47;;
6127;SDS011;7073;42.672;23.256;2022-09-01T09:23:44;23.83;;;18.00;;
6127;SDS011;7073;42.672;23.256;2022-09-01T09:26:16;19.87;;;16.50;;
6127;SDS011;7073;42.672;23.256;2022-09-01T09:28:45;22.77;;;17.03;;
6127;SDS011;7073;42.672;23.256;2022-09-01T09:31:31;24.20;;;17.53;;
6127;SDS011;7073;42.672;23.256;2022-09-01T09:34:00;19.83;;;17.67;;
6127;SDS011;7073;42.672;23.256;2022-09-01T09:36:29;22.10;;;16.27;;
6127;SDS011;7073;42.672;23.256;2022-09-01T09:39:06;21.77;;;14.90;;
6127;SDS011;7073;42.672;23.256;2022-09-01T09:41:34;16.93;;;14.23;;
6127;SDS011;7073;42.672;23.256;2022-09-01T09:44:03;20.17;;;16.70;;
6127;SDS011;7073;42.672;23.256;2022-09-01T09:46:40;82.43;;;51.20;;
6127;SDS011;7073;42.672;23.256;2022-09-01T09:49:10;31.97;;;22.30;;
6127;SDS011;7073;42.672;23.256;2022-09-01T09:51:41;75.47;;;43.43;;
6127;SDS011;7073;42.672;23.256;2022-09-01T09:54:13;50.37;;;30.63;;
6127;SDS011;7073;42.672;23.256;2022-09-01T09:56:44;63.43;;;38.70;;
6127;SDS011;7073;42.672;23.256;2022-09-01T09:59:16;48.83;;;27.27;;
6127;SDS011;7073;42.672;23.256;2022-09-01T10:01:48;220.90;;;86.30;;
6127;SDS011;7073;42.672;23.256;2022-09-01T10:04:30;121.07;;;52.30;;
6127;SDS011;7073;42.672;23.256;2022-09-01T10:06:59;34.20;;;21.80;;
6127;SDS011;7073;42.672;23.256;2022-09-01T10:09:34;24.97;;;18.87;;
6127;SDS011;7073;42.672;23.256;2022-09-01T10:12:02;21.00;;;13.70;;
6127;SDS011;7073;42.672;23.256;2022-09-01T10:14:32;26.50;;;20.40;;
6127;SDS011;7073;42.672;23.256;2022-09-01T10:17:08;26.23;;;20.50;;
6127;SDS011;7073;42.672;23.256;2022-09-01T10:19:38;36.40;;;24.67;;
6127;SDS011;7073;42.672;23.256;2022-09-01T10:22:08;18.17;;;15.70;;
6127;SDS011;7073;42.672;23.256;2022-09-01T10:24:37;17.10;;;15.07;;
6127;SDS011;7073;42.672;23.256;2022-09-01T10:27:05;19.20;;;15.00;;
6127;SDS011;7073;42.672;23.256;2022-09-01T10:29:36;21.60;;;15.93;;
6127;SDS011;7073;42.672;23.256;2022-09-01T10:32:11;31.13;;;16.87;;
6127;SDS011;7073;42.672;23.256;2022-09-01T10:34:41;20.70;;;16.00;;
6127;SDS011;7073;42.672;23.256;2022-09-01T10:37:11;16.90;;;14.70;;
6127;SDS011;7073;42.672;23.256;2022-09-01T10:42:40;18.17;;;16.20;;
6127;SDS011;7073;42.672;23.256;2022-09-01T10:45:15;16.33;;;14.63;;
6127;SDS011;7073;42.672;23.256;2022-09-01T10:47:48;17.37;;;15.57;;
6127;SDS011;7073;42.672;23.256;2022-09-01T10:50:23;20.93;;;16.50;;
6127;SDS011;7073;42.672;23.256;2022-09-01T10:52:55;25.10;;;17.20;;
6127;SDS011;7073;42.672;23.256;2022-09-01T10:55:37;27.30;;;18.47;;
6127;SDS011;7073;42.672;23.256;2022-09-01T11:01:14;28.17;;;18.10;;
6127;SDS011;7073;42.672;23.256;2022-09-01T11:03:50;29.90;;;16.20;;
6127;SDS011;7073;42.672;23.256;2022-09-01T11:06:33;21.60;;;19.30;;
6127;SDS011;7073;42.672;23.256;2022-09-01T11:09:22;22.80;;;20.37;;
6127;SDS011;7073;42.672;23.256;2022-09-01T11:11:59;18.63;;;16.67;;
6127;SDS011;7073;42.672;23.256;2022-09-01T11:14:47;27.77;;;16.57;;
6127;SDS011;7073;42.672;23.256;2022-09-01T11:17:17;20.33;;;17.10;;
6127;SDS011;7073;42.672;23.256;2022-09-01T11:19:47;21.67;;;16.47;;
6127;SDS011;7073;42.672;23.256;2022-09-01T11:22:23;17.70;;;14.97;;
6127;SDS011;7073;42.672;23.256;2022-09-01T11:25:07;16.20;;;14.50;;
6127;SDS011;7073;42.672;23.256;2022-09-01T11:27:59;24.03;;;15.20;;
6127;SDS011;7073;42.672;23.256;2022-09-01T11:30:42;16.47;;;13.97;;
6127;SDS011;7073;42.672;23.256;2022-09-01T11:33:28;18.20;;;15.20;;
6127;SDS011;7073;42.672;23.256;2022-09-01T11:36:06;21.13;;;15.00;;
6127;SDS011;7073;42.672;23.256;2022-09-01T11:38:42;17.90;;;14.37;;
6127;SDS011;7073;42.672;23.256;2022-09-01T11:41:21;16.20;;;14.50;;
6127;SDS011;7073;42.672;23.256;2022-09-01T11:46:59;15.33;;;13.40;;
6127;SDS011;7073;42.672;23.256;2022-09-01T11:49:30;20.00;;;14.47;;
6127;SDS011;7073;42.672;23.256;2022-09-01T11:52:00;20.83;;;15.30;;
6127;SDS011;7073;42.672;23.256;2022-09-01T11:54:29;16.80;;;13.20;;
6127;SDS011;7073;42.672;23.256;2022-09-01T11:57:15;16.57;;;13.83;;
6127;SDS011;7073;42.672;23.256;2022-09-01T11:59:44;16.17;;;13.67;;
6127;SDS011;7073;42.672;23.256;2022-09-01T12:02:16;17.57;;;14.00;;
6127;SDS011;7073;42.672;23.256;2022-09-01T12:04:44;18.33;;;12.50;;
6127;SDS011;7073;42.672;23.256;2022-09-01T12:07:13;14.23;;;12.53;;
6127;SDS011;7073;42.672;23.256;2022-09-01T12:09:51;23.63;;;14.03;;
6127;SDS011;7073;42.672;23.256;2022-09-01T12:12:29;14.33;;;12.80;;
6127;SDS011;7073;42.672;23.256;2022-09-01T12:14:59;14.37;;;12.80;;
6127;SDS011;7073;42.672;23.256;2022-09-01T12:17:27;15.50;;;12.70;;
6127;SDS011;7073;42.672;23.256;2022-09-01T12:19:54;16.17;;;12.87;;
6127;SDS011;7073;42.672;23.256;2022-09-01T12:22:23;14.47;;;12.80;;
6127;SDS011;7073;42.672;23.256;2022-09-01T12:24:51;18.70;;;13.20;;
6127;SDS011;7073;42.672;23.256;2022-09-01T12:27:19;15.03;;;12.10;;
6127;SDS011;7073;42.672;23.256;2022-09-01T12:29:48;19.53;;;12.97;;
6127;SDS011;7073;42.672;23.256;2022-09-01T12:32:16;15.47;;;12.53;;
6127;SDS011;7073;42.672;23.256;2022-09-01T12:34:58;16.93;;;12.73;;
6127;SDS011;7073;42.672;23.256;2022-09-01T12:37:28;14.77;;;12.00;;
6127;SDS011;7073;42.672;23.256;2022-09-01T12:39:55;13.50;;;12.30;;
6127;SDS011;7073;42.672;23.256;2022-09-01T12:42:24;20.60;;;15.80;;
6127;SDS011;7073;42.672;23.256;2022-09-01T12:44:55;16.67;;;14.80;;
6127;SDS011;7073;42.672;23.256;2022-09-01T12:50:40;16.50;;;14.40;;
6127;SDS011;7073;42.672;23.256;2022-09-01T12:53:16;21.93;;;14.50;;
6127;SDS011;7073;42.672;23.256;2022-09-01T12:55:53;18.67;;;13.50;;
6127;SDS011;7073;42.672;23.256;2022-09-01T12:58:24;16.73;;;12.73;;
6127;SDS011;7073;42.672;23.256;2022-09-01T13:00:55;15.33;;;12.80;;
6127;SDS011;7073;42.672;23.256;2022-09-01T13:03:27;14.87;;;13.33;;
6127;SDS011;7073;42.672;23.256;2022-09-01T13:05:55;14.70;;;12.93;;
6127;SDS011;7073;42.672;23.256;2022-09-01T13:08:25;15.37;;;13.20;;
6127;SDS011;7073;42.672;23.256;2022-09-01T13:10:55;15.23;;;13.63;;
6127;SDS011;7073;42.672;23.256;2022-09-01T13:13:24;15.17;;;13.57;;
6127;SDS011;7073;42.672;23.256;2022-09-01T13:15:52;15.00;;;13.47;;
6127;SDS011;7073;42.672;23.256;2022-09-01T13:18:21;18.20;;;15.70;;
6127;SDS011;7073;42.672;23.256;2022-09-01T13:20:51;17.90;;;16.00;;
6127;SDS011;7073;42.672;23.256;2022-09-01T13:23:19;14.83;;;13.30;;
6127;SDS011;7073;42.672;23.256;2022-09-01T13:25:47;17.27;;;13.17;;
6127;SDS011;7073;42.672;23.256;2022-09-01T13:28:15;16.60;;;14.87;;
6127;SDS011;7073;42.672;23.256;2022-09-01T13:30:43;18.50;;;15.03;;
6127;SDS011;7073;42.672;23.256;2022-09-01T13:33:20;16.33;;;14.23;;
6127;SDS011;7073;42.672;23.256;2022-09-01T13:35:47;15.87;;;14.30;;
6127;SDS011;7073;42.672;23.256;2022-09-01T13:38:14;21.03;;;15.13;;
6127;SDS011;7073;42.672;23.256;2022-09-01T13:40:42;15.60;;;14.00;;
6127;SDS011;7073;42.672;23.256;2022-09-01T13:43:12;17.90;;;14.40;;
6127;SDS011;7073;42.672;23.256;2022-09-01T13:45:39;14.97;;;13.40;;
6127;SDS011;7073;42.672;23.256;2022-09-01T13:48:06;21.20;;;14.67;;
6127;SDS011;7073;42.672;23.256;2022-09-01T13:50:34;20.70;;;15.20;;
6127;SDS011;7073;42.672;23.256;2022-09-01T13:53:03;14.63;;;13.23;;
6127;SDS011;7073;42.672;23.256;2022-09-01T13:55:32;18.40;;;14.33;;
6127;SDS011;7073;42.672;23.256;2022-09-01T13:58:00;19.87;;;14.50;;
6127;SDS011;7073;42.672;23.256;2022-09-01T14:00:29;20.27;;;15.23;;
6127;SDS011;7073;42.672;23.256;2022-09-01T14:02:59;16.53;;;14.70;;
6127;SDS011;7073;42.672;23.256;2022-09-01T14:05:28;14.93;;;13.43;;
6127;SDS011;7073;42.672;23.256;2022-09-01T14:07:58;22.43;;;14.17;;
6127;SDS011;7073;42.672;23.256;2022-09-01T14:10:26;16.63;;;14.90;;
6127;SDS011;7073;42.672;23.256;2022-09-01T14:12:55;15.37;;;13.20;;
6127;SDS011;7073;42.672;23.256;2022-09-01T14:15:23;17.30;;;13.20;;
6127;SDS011;7073;42.672;23.256;2022-09-01T14:17:52;15.73;;;12.80;;
6127;SDS011;7073;42.672;23.256;2022-09-01T14:20:22;15.63;;;12.37;;
6127;SDS011;7073;42.672;23.256;2022-09-01T14:22:51;15.17;;;13.67;;
6127;SDS011;7073;42.672;23.256;2022-09-01T14:25:19;16.43;;;12.60;;
6127;SDS011;7073;42.672;23.256;2022-09-01T14:27:46;17.40;;;14.37;;
6127;SDS011;7073;42.672;23.256;2022-09-01T14:30:15;16.93;;;12.77;;
6127;SDS011;7073;42.672;23.256;2022-09-01T14:32:43;15.63;;;12.90;;
6127;SDS011;7073;42.672;23.256;2022-09-01T14:35:13;19.47;;;14.40;;
6127;SDS011;7073;42.672;23.256;2022-09-01T14:37:40;16.30;;;12.90;;
6127;SDS011;7073;42.672;23.256;2022-09-01T14:40:08;18.50;;;13.83;;
6127;SDS011;7073;42.672;23.256;2022-09-01T14:42:39;16.13;;;14.37;;
6127;SDS011;7073;42.672;23.256;2022-09-01T14:45:08;16.40;;;14.03;;
6127;SDS011;7073;42.672;23.256;2022-09-01T14:47:36;17.80;;;15.30;;
6127;SDS011;7073;42.672;23.256;2022-09-01T14:50:04;16.90;;;14.80;;
6127;SDS011;7073;42.672;23.256;2022-09-01T14:52:33;17.43;;;15.23;;
6127;SDS011;7073;42.672;23.256;2022-09-01T14:55:01;16.57;;;15.07;;
6127;SDS011;7073;42.672;23.256;2022-09-01T14:57:28;16.40;;;14.40;;
6127;SDS011;7073;42.672;23.256;2022-09-01T14:59:56;15.87;;;13.70;;
6127;SDS011;7073;42.672;23.256;2022-09-01T15:02:23;19.10;;;14.30;;